createdAt,value
2018-02-22T00:10:45.761Z,62.8
2018-02-22T00:23:20.616Z,63.2
2018-02-22T00:59:34.115Z,63.3
2018-02-22T01:13:01.197Z,63.4
2018-02-22T01:26:32.104Z,63.0
2018-02-22T01:40:32.555Z,63.5
2018-02-22T01:53:51.703Z,63.3
2018-02-22T02:05:30.687Z,63.1
2018-02-22T02:18:29.062Z,63.3
2018-02-22T02:44:44.071Z,63.5
2018-02-22T02:57:11.251Z,63.6
2018-02-22T03:09:01.538Z,63.7
2018-02-22T03:20:44.077Z,63.6
2018-02-22T03:34:31.529Z,63.7
2018-02-22T03:47:50.239Z,63.7
2018-02-22T04:00:51.713Z,64.0
2018-02-22T04:13:56.087Z,63.6
2018-02-22T04:29:26.501Z,63.7
2018-02-22T05:11:58.648Z,63.4
2018-02-22T05:52:33.991Z,63.4
2018-02-22T07:25:37.094Z,64.6
2018-02-22T07:35:51.268Z,65.0
2018-02-22T07:48:26.236Z,65.1
2018-02-22T07:58:43.710Z,65.4
2018-02-22T08:11:17.318Z,69.2
2018-02-22T08:22:11.281Z,68.3
2018-02-22T08:36:50.779Z,65.3
2018-02-22T08:50:27.113Z,61.7
2018-02-22T09:15:32.019Z,55.4
2018-02-22T09:27:39.220Z,52.1
2018-02-22T09:37:54.986Z,52.2
2018-02-22T09:59:24.424Z,53.9
2018-02-22T10:09:38.966Z,55.1
2018-02-22T10:20:24.967Z,55.7
2018-02-22T10:30:39.513Z,56.4
2018-02-22T10:40:51.925Z,56.7
2018-02-22T10:51:38.214Z,57.5
2018-02-22T11:01:51.758Z,58.2
2018-02-22T11:12:06.979Z,59.6
2018-02-22T11:22:21.363Z,62.0
2018-02-22T11:33:07.075Z,62.5
2018-02-22T11:43:20.627Z,61.0
2018-02-22T11:53:35.502Z,60.7
2018-02-22T12:03:49.685Z,60.9
2018-02-22T12:14:03.116Z,60.8
2018-02-22T12:24:48.787Z,60.7
2018-02-22T12:35:34.816Z,58.7
2018-02-22T12:45:46.128Z,56.5
2018-02-22T12:56:00.286Z,55.4
2018-02-22T13:06:45.637Z,55.2
2018-02-22T13:16:57.584Z,55.6
2018-02-22T13:27:12.583Z,56.3
2018-02-22T13:37:58.282Z,57.0
2018-02-22T13:48:10.629Z,58.3
2018-02-22T13:58:24.962Z,60.1
2018-02-22T14:09:10.416Z,60.5
2018-02-22T14:19:21.684Z,62.9
2018-02-22T14:29:35.960Z,63.5
2018-02-22T14:39:50.353Z,63.5
2018-02-22T14:50:04.395Z,63.0
2018-02-22T15:00:19.662Z,61.8
2018-02-22T15:11:05.183Z,61.1
2018-02-22T15:21:51.038Z,62.3
2018-02-22T15:32:05.441Z,60.1
2018-02-22T15:42:19.621Z,59.9
2018-02-22T15:52:33.838Z,59.4
2018-02-22T16:02:47.967Z,58.8
2018-02-22T16:13:02.438Z,59.5
2018-02-22T16:23:16.547Z,58.8
2018-02-22T16:33:30.693Z,59.0
2018-02-22T16:43:44.959Z,58.9
2018-02-22T16:53:59.074Z,59.3
2018-02-22T17:04:15.266Z,59.2
2018-02-22T17:15:00.817Z,58.5
2018-02-22T17:25:15.260Z,59.0
2018-02-22T17:35:29.151Z,59.4
2018-02-22T17:45:44.443Z,59.6
2018-02-22T17:55:58.680Z,60.0
2018-02-22T18:06:12.755Z,60.1
2018-02-22T18:16:26.985Z,60.2
2018-02-22T18:27:12.744Z,60.6
2018-02-22T18:37:58.527Z,60.7
2018-02-22T18:48:44.772Z,60.8
2018-02-22T18:59:03.986Z,61.1
2018-02-22T19:22:36.758Z,61.5
2018-02-22T19:33:25.247Z,61.7
2018-02-22T20:03:13.331Z,62.1
2018-02-22T20:13:29.252Z,62.1
2018-02-22T20:31:46.448Z,62.6
2018-02-22T20:43:41.308Z,62.1
2018-02-22T20:53:55.462Z,62.2
2018-02-22T21:04:09.808Z,62.2
2018-02-22T21:14:23.490Z,62.2
2018-02-22T21:24:37.832Z,62.5
2018-02-22T21:34:55.452Z,62.5
2018-02-22T21:45:09.613Z,62.5
2018-02-22T21:55:54.608Z,62.5
2018-02-22T22:16:22.937Z,62.5
2018-02-22T22:26:36.528Z,62.6
2018-02-22T22:36:47.964Z,62.7
2018-02-22T22:47:02.383Z,62.8
2018-02-22T22:57:16.333Z,63.0
2018-02-22T23:07:30.685Z,63.0
2018-02-22T23:17:45.268Z,62.9
2018-02-22T23:27:59.160Z,63.0
2018-02-22T23:38:13.438Z,63.3
2018-02-22T23:48:28.000Z,63.4
2018-02-22T23:58:41.572Z,63.3
